createdAt,value
2018-03-25T00:01:56.682Z,40.07
2018-03-25T00:04:24.236Z,38.83
2018-03-25T00:06:51.814Z,38.47
2018-03-25T00:09:19.366Z,42.47
2018-03-25T00:11:47.040Z,39.80
2018-03-25T00:14:14.655Z,39.40
2018-03-25T00:16:42.213Z,39.93
2018-03-25T00:19:09.799Z,38.10
2018-03-25T00:21:37.493Z,40.53
2018-03-25T00:24:05.048Z,42.10
2018-03-25T00:26:32.623Z,43.13
2018-03-25T00:29:00.213Z,42.43
2018-03-25T00:31:27.771Z,44.60
2018-03-25T00:33:55.370Z,42.80
2018-03-25T00:36:23.057Z,42.57
2018-03-25T00:38:50.608Z,43.17
2018-03-25T00:41:18.163Z,42.47
2018-03-25T00:43:45.801Z,45.57
2018-03-25T00:46:13.365Z,43.20
2018-03-25T00:48:40.931Z,47.17
2018-03-25T00:51:08.522Z,44.30
2018-03-25T00:53:36.085Z,43.13
2018-03-25T00:56:03.670Z,46.47
2018-03-25T00:58:31.256Z,42.77
2018-03-25T01:00:58.828Z,43.60
2018-03-25T01:03:26.377Z,44.20
2018-03-25T01:05:53.976Z,44.30
2018-03-25T01:08:21.537Z,44.50
2018-03-25T01:10:49.187Z,44.20
2018-03-25T01:13:16.774Z,43.50
2018-03-25T01:15:57.108Z,43.77
2018-03-25T01:18:24.709Z,45.10
2018-03-25T01:20:52.316Z,44.87
2018-03-25T01:23:19.882Z,44.87
2018-03-25T01:25:47.492Z,42.23
2018-03-25T01:28:15.186Z,43.00
2018-03-25T01:30:42.733Z,46.73
2018-03-25T01:33:10.459Z,44.57
2018-03-25T01:35:38.788Z,45.03
2018-03-25T01:38:06.373Z,46.40
2018-03-25T01:40:33.940Z,43.63
2018-03-25T01:43:01.544Z,48.80
2018-03-25T01:45:29.111Z,46.60
2018-03-25T01:47:56.670Z,46.37
2018-03-25T01:50:24.252Z,47.27
2018-03-25T01:52:51.902Z,50.50
2018-03-25T01:55:19.488Z,45.73
2018-03-25T01:57:47.149Z,50.17
2018-03-25T02:00:14.802Z,44.67
2018-03-25T02:02:42.395Z,48.50
2018-03-25T02:05:09.940Z,44.83
2018-03-25T02:07:37.649Z,49.10
2018-03-25T02:10:05.270Z,45.67
2018-03-25T02:12:32.905Z,49.37
2018-03-25T02:15:00.503Z,47.33
2018-03-25T02:17:28.960Z,46.73
2018-03-25T02:19:56.628Z,47.47
2018-03-25T02:22:24.958Z,45.57
2018-03-25T02:24:52.536Z,47.53
2018-03-25T02:27:20.207Z,45.57
2018-03-25T02:29:47.765Z,46.13
2018-03-25T02:32:15.610Z,47.10
2018-03-25T02:34:43.199Z,45.37
2018-03-25T02:37:10.757Z,47.20
2018-03-25T02:39:38.360Z,48.70
2018-03-25T02:42:06.672Z,48.40
2018-03-25T02:44:34.225Z,48.47
2018-03-25T02:47:01.881Z,45.67
2018-03-25T02:49:29.488Z,48.83
2018-03-25T02:51:57.834Z,50.90
2018-03-25T02:54:25.381Z,53.20
2018-03-25T02:56:53.000Z,47.80
2018-03-25T02:59:21.425Z,49.67
2018-03-25T03:01:49.112Z,49.77
2018-03-25T03:04:16.673Z,43.23
2018-03-25T03:06:44.241Z,46.10
2018-03-25T03:09:11.822Z,48.20
2018-03-25T03:11:40.177Z,42.87
2018-03-25T03:14:07.833Z,42.63
2018-03-25T03:16:35.390Z,44.07
2018-03-25T03:19:02.944Z,48.17
2018-03-25T03:21:30.516Z,45.70
2018-03-25T03:23:58.085Z,46.17
2018-03-25T03:26:25.677Z,45.63
2018-03-25T03:28:53.290Z,46.83
2018-03-25T03:31:20.875Z,48.00
2018-03-25T03:33:49.216Z,47.80
2018-03-25T03:36:16.798Z,45.33
2018-03-25T03:38:44.374Z,48.70
2018-03-25T03:41:12.724Z,48.90
2018-03-25T03:43:40.279Z,49.60
2018-03-25T03:46:07.977Z,51.80
2018-03-25T03:48:36.396Z,48.17
2018-03-25T03:51:03.969Z,51.07
2018-03-25T03:53:31.528Z,51.17
2018-03-25T03:55:59.115Z,48.30
2018-03-25T03:58:26.696Z,51.03
2018-03-25T04:00:55.025Z,52.13
2018-03-25T04:03:22.625Z,48.37
2018-03-25T04:05:50.944Z,48.03
2018-03-25T04:08:18.553Z,51.67
2018-03-25T04:10:46.115Z,47.37
2018-03-25T04:13:13.687Z,49.27
2018-03-25T04:15:42.034Z,46.80
2018-03-25T04:18:09.590Z,50.43
2018-03-25T04:20:37.184Z,46.37
2018-03-25T04:23:05.513Z,46.10
2018-03-25T04:25:33.076Z,54.23
2018-03-25T04:28:00.756Z,56.50
2018-03-25T04:30:28.410Z,51.87
2018-03-25T04:32:56.000Z,48.73
2018-03-25T04:35:24.329Z,49.33
2018-03-25T04:37:51.912Z,46.50
2018-03-25T04:40:19.500Z,50.00
2018-03-25T04:42:47.873Z,49.00
2018-03-25T04:45:16.224Z,49.30
2018-03-25T04:47:43.885Z,52.83
2018-03-25T04:50:11.548Z,48.43
2018-03-25T04:52:39.203Z,46.17
2018-03-25T04:55:06.801Z,50.10
2018-03-25T04:57:34.374Z,50.50
2018-03-25T05:00:01.928Z,50.13
2018-03-25T05:02:30.281Z,48.30
2018-03-25T05:04:57.844Z,49.43
2018-03-25T05:07:25.425Z,48.83
2018-03-25T05:09:53.753Z,48.37
2018-03-25T05:12:21.305Z,51.90
2018-03-25T05:14:48.880Z,51.47
2018-03-25T05:17:16.482Z,51.73
2018-03-25T05:19:44.808Z,48.80
2018-03-25T05:22:12.380Z,52.17
2018-03-25T05:24:39.960Z,53.27
2018-03-25T05:27:08.304Z,49.73
2018-03-25T05:29:35.974Z,50.90
2018-03-25T05:32:03.551Z,49.97
2018-03-25T05:34:31.109Z,46.43
2018-03-25T05:36:58.776Z,43.33
2018-03-25T05:39:27.144Z,47.60
2018-03-25T05:41:54.692Z,44.77
2018-03-25T05:44:22.260Z,46.87
2018-03-25T05:46:49.840Z,46.00
2018-03-25T05:49:18.198Z,43.70
2018-03-25T05:51:45.857Z,45.40
2018-03-25T05:54:13.518Z,45.10
2018-03-25T05:56:41.114Z,44.50
2018-03-25T05:59:09.462Z,46.50
2018-03-25T06:01:37.032Z,44.33
2018-03-25T06:04:05.392Z,45.20
2018-03-25T06:06:32.995Z,43.80
2018-03-25T06:09:00.626Z,47.80
2018-03-25T06:11:28.264Z,44.30
2018-03-25T06:13:55.860Z,45.50
2018-03-25T06:16:24.185Z,41.83
2018-03-25T06:18:51.748Z,43.60
2018-03-25T06:21:19.353Z,43.07
2018-03-25T06:23:47.700Z,43.53
2018-03-25T06:26:15.265Z,40.80
2018-03-25T06:28:42.919Z,42.30
2018-03-25T06:31:10.513Z,41.90
2018-03-25T06:33:38.857Z,40.13
2018-03-25T06:36:06.535Z,44.30
2018-03-25T06:38:34.088Z,42.30
2018-03-25T06:41:01.664Z,41.17
2018-03-25T06:43:29.259Z,44.53
2018-03-25T06:45:56.809Z,47.07
2018-03-25T06:48:25.153Z,44.60
2018-03-25T06:50:52.712Z,40.80
2018-03-25T06:53:20.370Z,41.13
2018-03-25T06:55:47.929Z,41.33
2018-03-25T06:58:15.486Z,41.13
2018-03-25T07:00:43.072Z,43.20
2018-03-25T07:03:11.505Z,42.33
2018-03-25T07:05:40.618Z,43.10
2018-03-25T07:08:08.192Z,41.87
2018-03-25T07:10:35.828Z,40.27
2018-03-25T07:13:03.418Z,42.80
2018-03-25T07:15:31.774Z,43.23
2018-03-25T07:17:59.360Z,40.10
2018-03-25T07:20:27.740Z,43.40
2018-03-25T07:22:56.097Z,40.57
2018-03-25T07:25:24.436Z,41.13
2018-03-25T07:27:51.985Z,41.20
2018-03-25T07:30:19.549Z,42.33
2018-03-25T07:32:47.137Z,40.50
2018-03-25T07:35:14.697Z,44.20
2018-03-25T07:37:42.365Z,43.00
2018-03-25T07:40:09.925Z,44.00
2018-03-25T07:42:37.496Z,44.20
2018-03-25T07:45:05.048Z,42.63
2018-03-25T07:47:32.637Z,41.77
2018-03-25T07:50:01.011Z,42.40
2018-03-25T07:52:29.340Z,41.30
2018-03-25T07:54:56.924Z,41.43
2018-03-25T07:57:24.572Z,42.00
2018-03-25T07:59:52.167Z,40.97
2018-03-25T08:02:20.493Z,45.40
2018-03-25T08:04:48.090Z,42.30
2018-03-25T08:07:15.742Z,40.10
2018-03-25T08:09:43.308Z,42.50
2018-03-25T08:12:10.890Z,43.60
2018-03-25T08:14:39.235Z,41.17
2018-03-25T08:17:06.830Z,42.60
2018-03-25T08:19:35.251Z,40.53
2018-03-25T08:22:02.817Z,43.30
2018-03-25T08:24:30.412Z,42.93
2018-03-25T08:26:58.062Z,46.83
2018-03-25T08:29:26.440Z,48.30
2018-03-25T08:31:53.999Z,43.23
2018-03-25T08:34:21.664Z,41.53
2018-03-25T08:36:49.220Z,41.00
2018-03-25T08:39:16.961Z,44.13
2018-03-25T08:41:44.552Z,41.07
2018-03-25T08:44:12.274Z,44.93
2018-03-25T08:46:39.900Z,43.20
2018-03-25T08:49:08.314Z,42.33
2018-03-25T08:51:35.901Z,41.30
2018-03-25T08:54:03.465Z,42.13
2018-03-25T08:56:31.053Z,43.03
2018-03-25T08:58:59.408Z,41.00
2018-03-25T09:01:26.995Z,43.20
2018-03-25T09:03:54.633Z,43.90
2018-03-25T09:06:23.024Z,40.70
2018-03-25T09:08:50.571Z,42.47
2018-03-25T09:11:18.123Z,44.37
2018-03-25T09:13:45.702Z,42.37
2018-03-25T09:16:14.037Z,40.33
2018-03-25T09:18:41.636Z,42.00
2018-03-25T09:21:09.278Z,44.63
2018-03-25T09:23:36.954Z,46.47
2018-03-25T09:26:05.300Z,42.17
2018-03-25T09:28:32.876Z,42.83
2018-03-25T09:31:00.453Z,41.53
2018-03-25T09:33:28.023Z,41.50
2018-03-25T09:35:56.376Z,39.40
2018-03-25T09:38:23.928Z,39.10
2018-03-25T09:40:51.491Z,36.57
2018-03-25T09:43:19.065Z,37.07
2018-03-25T09:45:46.648Z,39.60
2018-03-25T09:48:14.347Z,33.50
2018-03-25T09:50:41.917Z,34.40
2018-03-25T09:53:09.512Z,37.20
2018-03-25T09:55:37.094Z,34.43
2018-03-25T09:58:04.766Z,35.93
2018-03-25T10:00:37.241Z,35.23
2018-03-25T10:03:10.493Z,34.97
2018-03-25T10:05:38.071Z,35.47
2018-03-25T10:08:06.415Z,34.27
2018-03-25T10:10:34.010Z,33.87
2018-03-25T10:13:02.340Z,36.27
2018-03-25T10:15:29.898Z,35.97
2018-03-25T10:17:57.545Z,37.50
2018-03-25T10:20:25.103Z,35.67
2018-03-25T10:22:52.656Z,36.90
2018-03-25T10:25:20.237Z,35.90
2018-03-25T10:27:48.668Z,36.30
2018-03-25T10:30:17.001Z,36.83
2018-03-25T10:32:44.600Z,33.90
2018-03-25T10:35:12.950Z,35.10
2018-03-25T10:37:40.502Z,35.30
2018-03-25T10:40:08.076Z,34.53
2018-03-25T10:42:35.644Z,35.80
2018-03-25T10:45:03.225Z,35.27
2018-03-25T10:47:31.548Z,36.77
2018-03-25T10:49:59.154Z,32.57
2018-03-25T10:52:27.488Z,32.10
2018-03-25T10:54:55.033Z,32.17
2018-03-25T10:57:22.630Z,32.67
2018-03-25T10:59:50.218Z,34.00
2018-03-25T11:02:18.564Z,32.40
2018-03-25T11:04:46.125Z,34.63
2018-03-25T11:07:13.713Z,33.43
2018-03-25T11:09:42.048Z,33.53
2018-03-25T11:12:09.643Z,32.97
2018-03-25T11:14:37.984Z,31.63
2018-03-25T11:17:05.623Z,36.27
2018-03-25T11:19:33.200Z,36.30
2018-03-25T11:22:00.784Z,34.37
2018-03-25T11:24:28.341Z,34.20
2018-03-25T11:26:55.934Z,39.60
2018-03-25T11:29:24.266Z,37.90
2018-03-25T11:31:51.855Z,40.87
2018-03-25T11:34:19.427Z,42.00
2018-03-25T11:36:47.772Z,43.13
2018-03-25T11:39:15.340Z,40.60
2018-03-25T11:41:42.921Z,41.47
2018-03-25T11:44:11.240Z,38.80
2018-03-25T11:46:38.839Z,39.33
2018-03-25T11:49:06.395Z,42.17
2018-03-25T11:51:33.975Z,44.13
2018-03-25T11:54:01.570Z,40.33
2018-03-25T11:56:29.129Z,39.83
2018-03-25T11:58:56.715Z,41.83
2018-03-25T12:01:24.339Z,41.87
2018-03-25T12:03:51.896Z,43.30
2018-03-25T12:06:19.509Z,43.00
2018-03-25T12:08:47.094Z,41.77
2018-03-25T12:11:15.468Z,41.87
2018-03-25T12:13:43.798Z,44.17
2018-03-25T12:16:11.368Z,44.37
2018-03-25T12:18:38.943Z,41.50
2018-03-25T12:21:06.504Z,42.27
2018-03-25T12:23:34.084Z,42.00
2018-03-25T12:26:02.406Z,42.50
2018-03-25T12:28:29.990Z,44.90
2018-03-25T12:30:58.324Z,41.67
2018-03-25T12:33:25.999Z,46.33
2018-03-25T12:35:53.553Z,43.37
2018-03-25T12:38:21.146Z,45.60
2018-03-25T12:40:48.706Z,45.57
2018-03-25T12:43:16.266Z,44.97
2018-03-25T12:45:43.859Z,44.90
2018-03-25T12:48:12.465Z,47.53
2018-03-25T12:50:40.016Z,46.27
2018-03-25T12:53:07.589Z,46.60
2018-03-25T12:55:35.249Z,45.30
2018-03-25T12:58:02.813Z,44.40
2018-03-25T13:00:30.411Z,43.00
2018-03-25T13:02:58.016Z,49.80
2018-03-25T13:05:25.588Z,49.73
2018-03-25T13:07:53.160Z,46.23
2018-03-25T13:10:20.737Z,46.40
2018-03-25T13:12:48.465Z,46.43
2018-03-25T13:15:16.065Z,47.27
2018-03-25T13:17:43.641Z,45.20
2018-03-25T13:20:11.192Z,47.43
2018-03-25T13:22:38.753Z,45.60
2018-03-25T13:25:06.333Z,44.03
2018-03-25T13:27:34.684Z,47.73
2018-03-25T13:30:02.293Z,46.27
2018-03-25T13:32:29.861Z,45.37
2018-03-25T13:34:57.418Z,46.40
2018-03-25T13:37:25.008Z,45.90
2018-03-25T13:39:52.559Z,45.23
2018-03-25T13:42:20.136Z,44.63
2018-03-25T13:44:47.705Z,47.60
2018-03-25T13:47:15.312Z,47.57
2018-03-25T13:49:42.863Z,45.90
2018-03-25T13:52:11.188Z,44.30
2018-03-25T13:54:38.761Z,45.27
2018-03-25T13:57:06.341Z,42.20
2018-03-25T13:59:33.941Z,38.57
2018-03-25T14:02:01.543Z,43.10
2018-03-25T14:04:29.172Z,39.93
2018-03-25T14:06:56.744Z,43.10
2018-03-25T14:09:24.329Z,41.00
2018-03-25T14:11:51.928Z,42.03
2018-03-25T14:14:19.566Z,42.23
2018-03-25T14:16:47.896Z,37.70
2018-03-25T14:19:15.481Z,39.43
2018-03-25T14:21:43.137Z,37.73
2018-03-25T14:24:10.819Z,35.43
2018-03-25T14:26:39.188Z,36.37
2018-03-25T14:29:07.537Z,39.03
2018-03-25T14:31:35.113Z,37.87
2018-03-25T14:34:02.696Z,37.83
2018-03-25T14:36:30.316Z,39.60
2018-03-25T14:38:57.893Z,38.27
2018-03-25T14:41:25.510Z,38.27
2018-03-25T14:43:53.053Z,39.60
2018-03-25T14:46:21.426Z,39.97
2018-03-25T14:48:49.775Z,40.53
2018-03-25T14:51:18.124Z,40.50
2018-03-25T14:53:45.700Z,38.70
2018-03-25T14:56:13.276Z,41.13
2018-03-25T14:58:40.855Z,38.30
2018-03-25T15:01:08.984Z,40.37
2018-03-25T15:03:36.547Z,38.17
2018-03-25T15:06:04.136Z,37.83
2018-03-25T15:08:31.703Z,38.73
2018-03-25T15:11:00.026Z,38.20
2018-03-25T15:13:27.634Z,39.83
2018-03-25T15:15:55.986Z,38.70
2018-03-25T15:18:23.565Z,40.10
2018-03-25T15:20:51.933Z,38.10
2018-03-25T15:23:19.597Z,38.83
2018-03-25T15:25:47.252Z,36.80
2018-03-25T15:28:14.892Z,36.87
2018-03-25T15:30:42.461Z,37.10
2018-03-25T15:33:10.025Z,35.73
2018-03-25T15:35:37.606Z,37.23
2018-03-25T15:38:05.327Z,39.20
2018-03-25T15:40:32.918Z,36.80
2018-03-25T15:43:00.586Z,39.10
2018-03-25T15:45:28.250Z,35.40
2018-03-25T15:47:55.821Z,37.00
2018-03-25T15:50:24.156Z,36.92
2018-03-25T15:52:51.813Z,35.97
2018-03-25T15:55:19.396Z,38.27
2018-03-25T15:57:46.972Z,38.83
2018-03-25T16:00:14.624Z,34.70
2018-03-25T16:02:42.173Z,40.30
2018-03-25T16:05:09.841Z,38.87
2018-03-25T16:07:37.399Z,35.57
2018-03-25T16:10:05.060Z,37.40
2018-03-25T16:12:32.614Z,38.30
2018-03-25T16:15:00.260Z,36.00
2018-03-25T16:17:27.952Z,34.00
2018-03-25T16:19:55.623Z,36.57
2018-03-25T16:22:24.037Z,35.20
2018-03-25T16:27:25.652Z,38.27
2018-03-25T16:29:53.220Z,37.57
2018-03-25T16:32:20.876Z,37.63
2018-03-25T16:34:48.436Z,34.97
2018-03-25T16:37:15.989Z,34.53
2018-03-25T16:39:43.669Z,35.00
2018-03-25T16:42:11.241Z,32.93
2018-03-25T16:44:39.607Z,32.40
2018-03-25T16:47:07.157Z,31.43
2018-03-25T16:49:34.721Z,34.77
2018-03-25T16:52:02.296Z,31.93
2018-03-25T16:54:30.640Z,31.33
2018-03-25T16:56:58.367Z,32.43
2018-03-25T16:59:26.666Z,29.03
2018-03-25T17:01:54.240Z,33.53
2018-03-25T17:04:21.803Z,30.60
2018-03-25T17:06:49.384Z,31.90
2018-03-25T17:09:17.033Z,30.10
2018-03-25T17:11:44.633Z,30.20
2018-03-25T17:14:12.972Z,30.87
2018-03-25T17:16:40.521Z,34.13
2018-03-25T17:19:08.094Z,30.73
2018-03-25T17:21:35.676Z,30.73
2018-03-25T17:24:04.015Z,28.50
2018-03-25T17:26:31.590Z,32.87
2018-03-25T17:28:59.241Z,32.60
2018-03-25T17:31:26.819Z,32.50
2018-03-25T17:33:54.466Z,32.67
2018-03-25T17:36:22.031Z,30.63
2018-03-25T17:38:49.684Z,30.93
2018-03-25T17:41:17.260Z,30.50
2018-03-25T17:43:44.819Z,28.43
2018-03-25T17:46:12.425Z,26.87
2018-03-25T17:48:40.033Z,28.60
2018-03-25T17:51:07.601Z,29.87
2018-03-25T17:53:35.288Z,28.30
2018-03-25T17:56:04.425Z,28.63
2018-03-25T17:58:32.038Z,29.43
2018-03-25T18:01:00.368Z,30.30
2018-03-25T18:03:27.936Z,29.17
2018-03-25T18:05:55.520Z,30.60
2018-03-25T18:08:23.872Z,28.63
2018-03-25T18:10:51.450Z,29.23
2018-03-25T18:13:19.788Z,31.70
2018-03-25T18:15:47.345Z,28.47
2018-03-25T18:18:14.920Z,28.87
2018-03-25T18:20:42.497Z,29.50
2018-03-25T18:23:10.092Z,27.80
2018-03-25T18:25:38.516Z,27.83
2018-03-25T18:28:06.095Z,29.50
2018-03-25T18:30:33.769Z,30.23
2018-03-25T18:33:01.336Z,30.80
2018-03-25T18:35:29.689Z,30.27
2018-03-25T18:37:57.272Z,28.97
2018-03-25T18:40:24.857Z,29.83
2018-03-25T18:42:52.424Z,32.73
2018-03-25T18:45:20.034Z,30.37
2018-03-25T18:47:47.674Z,30.47
2018-03-25T18:50:15.299Z,31.80
2018-03-25T18:52:42.852Z,31.23
2018-03-25T18:55:11.202Z,29.73
2018-03-25T18:57:38.780Z,30.60
2018-03-25T19:00:07.180Z,31.30
2018-03-25T19:02:34.992Z,30.93
2018-03-25T19:05:02.804Z,33.47
2018-03-25T19:07:30.423Z,36.63
2018-03-25T19:09:58.042Z,36.93
2018-03-25T19:12:25.637Z,33.10
2018-03-25T19:14:53.211Z,34.53
2018-03-25T19:17:20.860Z,34.10
2018-03-25T19:19:48.491Z,34.50
2018-03-25T19:22:16.072Z,35.27
2018-03-25T19:24:43.760Z,37.27
2018-03-25T19:27:12.114Z,35.20
2018-03-25T19:29:39.666Z,34.97
2018-03-25T19:32:07.324Z,32.40
2018-03-25T19:34:34.904Z,33.73
2018-03-25T19:37:02.468Z,35.07
2018-03-25T19:39:30.069Z,34.87
2018-03-25T19:41:57.755Z,34.30
2018-03-25T19:44:25.444Z,34.60
2018-03-25T19:46:53.802Z,33.77
2018-03-25T19:49:21.676Z,35.70
2018-03-25T19:51:49.254Z,37.53
2018-03-25T19:54:16.838Z,35.00
2018-03-25T19:56:45.160Z,36.70
2018-03-25T19:59:12.739Z,35.33
2018-03-25T20:01:40.326Z,34.30
2018-03-25T20:04:07.986Z,36.80
2018-03-25T20:06:35.551Z,38.67
2018-03-25T20:09:03.907Z,39.20
2018-03-25T20:11:31.499Z,39.10
2018-03-25T20:13:59.841Z,40.33
2018-03-25T20:16:27.509Z,41.87
2018-03-25T20:18:55.088Z,40.37
2018-03-25T20:21:23.434Z,40.07
2018-03-25T20:23:51.013Z,40.67
2018-03-25T20:26:19.454Z,43.47
2018-03-25T20:28:47.045Z,41.47
2018-03-25T20:31:14.714Z,42.87
2018-03-25T20:33:42.373Z,44.43
2018-03-25T20:36:09.989Z,43.97
2018-03-25T20:38:37.580Z,42.47
2018-03-25T20:41:05.136Z,40.60
2018-03-25T20:43:32.736Z,42.20
2018-03-25T20:46:01.065Z,42.70
2018-03-25T20:48:28.751Z,44.57
2018-03-25T20:50:56.413Z,43.40
2018-03-25T20:53:23.985Z,42.73
2018-03-25T20:55:51.572Z,43.70
2018-03-25T20:58:19.187Z,42.60
2018-03-25T21:00:46.848Z,43.90
2018-03-25T21:03:14.519Z,41.10
2018-03-25T21:05:42.858Z,41.70
2018-03-25T21:08:10.471Z,43.10
2018-03-25T21:10:38.830Z,42.77
2018-03-25T21:13:06.400Z,41.37
2018-03-25T21:15:34.054Z,42.30
2018-03-25T21:18:01.631Z,40.60
2018-03-25T21:20:29.984Z,40.20
2018-03-25T21:22:57.640Z,42.47
2018-03-25T21:25:25.196Z,41.33
2018-03-25T21:27:52.764Z,41.27
2018-03-25T21:30:20.324Z,41.70
2018-03-25T21:32:48.023Z,40.40
2018-03-25T21:35:15.580Z,41.40
2018-03-25T21:37:43.929Z,43.60
2018-03-25T21:40:11.477Z,44.00
2018-03-25T21:42:39.065Z,41.40
2018-03-25T21:45:07.422Z,42.77
2018-03-25T21:47:35.019Z,45.00
2018-03-25T21:50:03.346Z,45.63
2018-03-25T21:52:30.910Z,43.00
2018-03-25T21:54:58.484Z,42.83
2018-03-25T21:57:26.050Z,40.30
2018-03-25T21:59:53.640Z,42.67
2018-03-25T22:02:21.201Z,42.47
2018-03-25T22:04:48.790Z,42.47
2018-03-25T22:07:16.341Z,43.33
2018-03-25T22:09:43.897Z,40.93
2018-03-25T22:12:11.472Z,42.73
2018-03-25T22:14:39.036Z,39.07
2018-03-25T22:17:06.589Z,41.13
2018-03-25T22:19:34.485Z,39.70
2018-03-25T22:22:02.040Z,40.87
2018-03-25T22:24:29.704Z,40.27
2018-03-25T22:26:57.274Z,40.63
2018-03-25T22:29:24.836Z,41.80
2018-03-25T22:31:53.182Z,40.20
2018-03-25T22:34:20.732Z,41.83
2018-03-25T22:36:48.411Z,41.80
2018-03-25T22:39:15.971Z,38.47
2018-03-25T22:41:43.553Z,38.17
2018-03-25T22:44:11.103Z,40.00
2018-03-25T22:46:38.683Z,37.40
2018-03-25T22:49:07.001Z,39.80
2018-03-25T22:51:34.556Z,37.63
2018-03-25T22:54:02.137Z,38.07
2018-03-25T22:56:29.704Z,37.30
2018-03-25T22:58:57.305Z,35.57
2018-03-25T23:01:25.620Z,37.17
2018-03-25T23:03:53.197Z,34.83
2018-03-25T23:06:20.768Z,38.87
2018-03-25T23:08:49.109Z,36.03
2018-03-25T23:11:16.700Z,35.17
2018-03-25T23:13:44.256Z,35.17
2018-03-25T23:16:11.836Z,35.33
2018-03-25T23:18:39.432Z,32.90
2018-03-25T23:21:07.012Z,34.63
2018-03-25T23:23:34.599Z,36.70
2018-03-25T23:26:02.187Z,34.17
2018-03-25T23:28:30.513Z,34.40
2018-03-25T23:30:58.107Z,34.83
2018-03-25T23:33:25.657Z,35.30
2018-03-25T23:35:53.316Z,37.30
2018-03-25T23:38:20.872Z,36.03
2018-03-25T23:40:48.444Z,32.83
2018-03-25T23:43:16.017Z,37.30
2018-03-25T23:45:44.360Z,34.70
2018-03-25T23:48:11.946Z,34.80
2018-03-25T23:50:39.592Z,34.63
2018-03-25T23:53:07.172Z,33.80
2018-03-25T23:55:35.480Z,34.03
2018-03-25T23:58:03.052Z,32.63
